createdAt,value
2023-04-21T00:02:27.769Z,20.63
2023-04-21T00:04:56.752Z,20.61
2023-04-21T00:07:25.303Z,20.62
2023-04-21T00:09:53.806Z,20.61
2023-04-21T00:12:22.264Z,20.61
2023-04-21T00:14:52.064Z,20.61
2023-04-21T00:17:20.627Z,20.59
2023-04-21T00:19:49.049Z,20.59
2023-04-21T00:22:17.548Z,20.59
2023-04-21T00:24:46.124Z,20.59
2023-04-21T00:27:15.596Z,20.58
2023-04-21T00:29:44.151Z,20.59
2023-04-21T00:32:14.941Z,20.58
2023-04-21T00:34:43.336Z,20.57
2023-04-21T00:37:13.707Z,20.57
2023-04-21T00:39:42.235Z,20.57
2023-04-21T00:42:10.777Z,20.57
2023-04-21T00:44:39.183Z,20.56
2023-04-21T00:47:07.651Z,20.56
2023-04-21T00:49:37.904Z,20.55
2023-04-21T00:52:06.976Z,20.55
2023-04-21T00:54:37.006Z,20.53
2023-04-21T00:57:07.867Z,20.54
2023-04-21T00:59:36.418Z,20.52
2023-04-21T01:02:05.381Z,20.53
2023-04-21T01:04:37.056Z,20.53
2023-04-21T01:07:07.770Z,20.54
2023-04-21T01:09:36.212Z,20.53
2023-04-21T01:12:08.871Z,20.52
2023-04-21T01:14:37.873Z,20.52
2023-04-21T01:17:07.733Z,20.51
2023-04-21T01:19:39.377Z,20.50
2023-04-21T01:22:12.233Z,20.50
2023-04-21T01:24:42.582Z,20.50
2023-04-21T01:27:14.646Z,20.50
2023-04-21T01:29:44.434Z,20.50
2023-04-21T01:32:15.544Z,20.49
2023-04-21T01:34:45.337Z,20.49
2023-04-21T01:37:17.644Z,20.48
2023-04-21T01:39:52.053Z,20.48
2023-04-21T01:42:21.240Z,20.48
2023-04-21T01:44:50.678Z,20.48
2023-04-21T01:47:19.571Z,20.46
2023-04-21T01:49:48.082Z,20.47
2023-04-21T01:52:17.893Z,20.47
2023-04-21T01:54:47.482Z,20.47
2023-04-21T01:57:16.366Z,20.46
2023-04-21T01:59:45.027Z,20.46
2023-04-21T02:02:13.638Z,20.45
2023-04-21T02:04:42.258Z,20.45
2023-04-21T02:07:10.747Z,20.44
2023-04-21T02:09:43.542Z,20.44
2023-04-21T02:12:11.954Z,20.43
2023-04-21T02:14:44.110Z,20.44
2023-04-21T02:17:13.376Z,20.42
2023-04-21T02:19:41.936Z,20.41
2023-04-21T02:22:12.782Z,20.42
2023-04-21T02:24:41.192Z,20.42
2023-04-21T02:27:10.947Z,20.42
2023-04-21T02:29:39.316Z,20.41
2023-04-21T02:32:22.119Z,20.41
2023-04-21T02:34:53.975Z,20.41
2023-04-21T02:37:22.531Z,20.40
2023-04-21T02:39:50.938Z,20.40
2023-04-21T02:42:20.722Z,20.40
2023-04-21T02:44:49.765Z,20.40
2023-04-21T02:47:18.254Z,20.40
2023-04-21T02:49:46.736Z,20.40
2023-04-21T02:52:15.948Z,20.38
2023-04-21T02:54:44.425Z,20.39
2023-04-21T02:57:12.845Z,20.39
2023-04-21T02:59:42.961Z,20.38
2023-04-21T03:02:11.515Z,20.38
2023-04-21T03:04:40.352Z,20.37
2023-04-21T03:07:12.929Z,20.37
2023-04-21T03:09:41.910Z,20.38
2023-04-21T03:12:10.510Z,20.37
2023-04-21T03:14:39.006Z,20.36
2023-04-21T03:17:09.822Z,20.37
2023-04-21T03:19:38.259Z,20.36
2023-04-21T03:22:07.208Z,20.34
2023-04-21T03:24:36.047Z,20.36
2023-04-21T03:27:06.459Z,20.36
2023-04-21T03:29:34.999Z,20.36
2023-04-21T03:32:03.562Z,20.34
2023-04-21T03:34:33.558Z,20.34
2023-04-21T03:37:05.680Z,20.34
2023-04-21T03:39:34.068Z,20.33
2023-04-21T03:42:04.900Z,20.34
2023-04-21T03:44:33.903Z,20.33
2023-04-21T03:47:04.416Z,20.31
2023-04-21T03:49:36.123Z,20.31
2023-04-21T03:52:04.824Z,20.32
2023-04-21T03:54:33.271Z,20.31
2023-04-21T03:57:01.678Z,20.31
2023-04-21T03:59:30.120Z,20.31
2023-04-21T04:01:58.644Z,20.31
2023-04-21T04:04:27.276Z,20.31
2023-04-21T04:06:57.515Z,20.31
2023-04-21T04:09:26.159Z,20.30
2023-04-21T04:11:54.663Z,20.30
2023-04-21T04:14:23.164Z,20.31
2023-04-21T04:16:51.585Z,20.30
2023-04-21T04:19:20.518Z,20.30
2023-04-21T04:21:49.375Z,20.30
2023-04-21T04:24:19.350Z,20.29
2023-04-21T04:26:47.852Z,20.29
2023-04-21T04:29:17.809Z,20.29
2023-04-21T04:31:46.560Z,20.29
2023-04-21T04:34:15.630Z,20.30
2023-04-21T04:36:44.415Z,20.30
2023-04-21T04:39:13.789Z,20.30
2023-04-21T04:41:43.705Z,20.30
2023-04-21T04:44:12.222Z,20.30
2023-04-21T04:46:40.768Z,20.30
2023-04-21T04:49:09.386Z,20.31
2023-04-21T04:51:37.865Z,20.34
2023-04-21T04:54:06.540Z,20.35
2023-04-21T04:56:35.012Z,20.38
2023-04-21T04:59:04.905Z,20.41
2023-04-21T05:01:33.478Z,20.46
2023-04-21T05:04:02.335Z,20.51
2023-04-21T05:06:32.158Z,20.54
2023-04-21T05:09:00.696Z,20.58
2023-04-21T05:11:29.188Z,20.64
2023-04-21T05:13:57.680Z,20.66
2023-04-21T05:16:27.621Z,20.67
2023-04-21T05:18:56.146Z,20.68
2023-04-21T05:21:27.482Z,20.71
2023-04-21T05:23:56.714Z,20.71
2023-04-21T05:26:25.587Z,20.72
2023-04-21T05:28:54.172Z,20.74
2023-04-21T05:31:22.674Z,20.76
2023-04-21T05:33:52.958Z,20.79
2023-04-21T05:36:21.515Z,20.79
2023-04-21T05:38:49.909Z,20.75
2023-04-21T05:41:18.426Z,20.72
2023-04-21T05:43:47.553Z,20.68
2023-04-21T05:46:16.223Z,20.64
2023-04-21T05:48:44.707Z,20.62
2023-04-21T05:51:16.383Z,20.60
2023-04-21T05:53:46.131Z,20.58
2023-04-21T05:56:14.880Z,20.55
2023-04-21T05:58:43.525Z,20.54
2023-04-21T06:01:12.944Z,20.52
2023-04-21T06:03:41.581Z,20.52
2023-04-21T06:06:11.383Z,20.52
2023-04-21T06:08:41.237Z,20.51
2023-04-21T06:11:09.983Z,20.49
2023-04-21T06:13:39.517Z,20.49
2023-04-21T06:16:09.608Z,20.48
2023-04-21T06:18:38.044Z,20.47
2023-04-21T06:21:06.781Z,20.47
2023-04-21T06:23:35.205Z,20.47
2023-04-21T06:26:07.165Z,20.46
2023-04-21T06:28:37.078Z,20.45
2023-04-21T06:31:08.974Z,20.45
2023-04-21T06:33:37.696Z,20.44
2023-04-21T06:36:07.088Z,20.44
2023-04-21T06:38:35.682Z,20.44
2023-04-21T06:41:06.502Z,20.44
2023-04-21T06:43:34.956Z,20.43
2023-04-21T06:46:03.418Z,20.42
2023-04-21T06:48:31.891Z,20.43
2023-04-21T06:51:02.544Z,20.46
2023-04-21T06:53:30.943Z,20.47
2023-04-21T06:55:59.400Z,20.52
2023-04-21T06:58:29.290Z,20.54
2023-04-21T07:00:57.738Z,20.56
2023-04-21T07:03:26.129Z,20.59
2023-04-21T07:05:54.695Z,20.62
2023-04-21T07:08:23.137Z,20.64
2023-04-21T07:10:51.539Z,20.67
2023-04-21T07:13:20.003Z,20.67
2023-04-21T07:15:52.700Z,20.70
2023-04-21T07:18:21.233Z,20.71
2023-04-21T07:20:49.572Z,20.74
2023-04-21T07:23:18.075Z,20.74
2023-04-21T07:25:46.462Z,20.75
2023-04-21T07:28:16.161Z,20.77
2023-04-21T07:30:44.659Z,20.76
2023-04-21T07:33:15.191Z,20.77
2023-04-21T07:35:46.452Z,20.79
2023-04-21T07:38:14.830Z,20.78
2023-04-21T07:40:43.380Z,20.80
2023-04-21T07:43:11.839Z,20.81
2023-04-21T07:45:40.345Z,20.81
2023-04-21T07:48:08.965Z,20.82
2023-04-21T07:50:38.961Z,20.82
2023-04-21T07:53:07.334Z,20.83
2023-04-21T07:55:37.153Z,20.83
2023-04-21T07:58:05.919Z,20.84
2023-04-21T08:00:34.475Z,20.86
2023-04-21T08:03:02.964Z,20.86
2023-04-21T08:05:34.818Z,20.85
2023-04-21T08:08:07.289Z,20.86
2023-04-21T08:10:38.696Z,20.87
2023-04-21T08:13:07.107Z,20.87
2023-04-21T08:15:35.814Z,20.87
2023-04-21T08:18:04.347Z,20.88
2023-04-21T08:20:33.065Z,20.89
2023-04-21T08:23:06.162Z,20.88
2023-04-21T08:25:34.950Z,20.89
2023-04-21T08:28:03.434Z,20.91
2023-04-21T08:30:35.074Z,20.92
2023-04-21T08:33:03.482Z,20.93
2023-04-21T08:35:32.092Z,20.94
2023-04-21T08:38:00.812Z,20.97
2023-04-21T08:40:34.859Z,20.99
2023-04-21T08:43:03.468Z,21.00
2023-04-21T08:45:33.055Z,21.00
2023-04-21T08:48:02.665Z,21.02
2023-04-21T08:50:32.239Z,21.02
2023-04-21T08:53:00.744Z,21.03
2023-04-21T08:55:32.287Z,21.03
2023-04-21T08:58:00.781Z,21.00
2023-04-21T09:00:29.189Z,20.99
2023-04-21T09:03:01.794Z,20.97
2023-04-21T09:05:32.955Z,20.95
2023-04-21T09:08:11.851Z,20.93
2023-04-21T09:10:46.352Z,20.92
2023-04-21T09:13:15.312Z,20.91
2023-04-21T09:15:45.499Z,20.91
2023-04-21T09:18:15.226Z,20.89
2023-04-21T09:20:45.317Z,20.88
2023-04-21T09:23:14.435Z,20.87
2023-04-21T09:25:46.226Z,20.87
2023-04-21T09:28:15.577Z,20.86
2023-04-21T09:30:44.314Z,20.85
2023-04-21T09:33:28.059Z,20.85
2023-04-21T09:36:02.236Z,20.85
2023-04-21T09:38:30.698Z,20.85
2023-04-21T09:41:00.927Z,20.84
2023-04-21T09:43:29.411Z,20.84
2023-04-21T09:45:59.679Z,20.81
2023-04-21T09:48:32.243Z,20.80
2023-04-21T09:51:27.153Z,20.80
2023-04-21T09:53:51.715Z,20.80
2023-04-21T09:56:25.494Z,20.79
2023-04-21T09:58:55.242Z,20.78
2023-04-21T10:01:27.402Z,20.77
2023-04-21T10:03:56.610Z,20.77
2023-04-21T10:06:25.455Z,20.74
2023-04-21T10:08:58.175Z,20.74
2023-04-21T10:11:28.096Z,20.73
2023-04-21T10:13:56.872Z,20.72
2023-04-21T10:16:26.451Z,20.71
2023-04-21T10:18:54.988Z,20.70
2023-04-21T10:21:24.459Z,20.70
2023-04-21T10:23:53.900Z,20.68
2023-04-21T10:26:23.777Z,20.68
2023-04-21T10:28:59.349Z,20.66
2023-04-21T10:31:32.825Z,20.66
2023-04-21T10:34:15.268Z,20.63
2023-04-21T10:36:49.364Z,20.63
2023-04-21T10:39:28.874Z,20.63
2023-04-21T10:41:59.183Z,20.63
2023-04-21T10:44:29.958Z,20.62
2023-04-21T10:46:59.988Z,20.62
2023-04-21T10:49:30.258Z,20.63
2023-04-21T10:52:10.819Z,20.63
2023-04-21T10:54:45.804Z,20.64
2023-04-21T10:57:16.296Z,20.64
2023-04-21T10:59:47.556Z,20.65
2023-04-21T11:02:18.356Z,20.64
2023-04-21T11:04:52.348Z,20.66
2023-04-21T11:07:21.638Z,20.66
2023-04-21T11:09:58.937Z,20.66
2023-04-21T11:12:32.702Z,20.68
2023-04-21T11:15:05.516Z,20.67
2023-04-21T11:17:34.193Z,20.65
2023-04-21T11:20:03.979Z,20.66
2023-04-21T11:22:32.469Z,20.65
2023-04-21T11:25:01.032Z,20.66
2023-04-21T11:27:30.735Z,20.64
2023-04-21T11:29:59.455Z,20.63
2023-04-21T11:32:29.326Z,20.62
2023-04-21T11:34:57.854Z,20.63
2023-04-21T11:37:27.830Z,20.62
2023-04-21T11:40:00.499Z,20.61
2023-04-21T11:42:29.786Z,20.61
2023-04-21T11:44:59.210Z,20.61
2023-04-21T11:47:29.594Z,20.60
2023-04-21T11:50:00.296Z,20.61
2023-04-21T11:52:32.780Z,20.62
2023-04-21T11:55:03.093Z,20.66
2023-04-21T11:57:32.758Z,20.68
2023-04-21T12:00:02.353Z,20.70
2023-04-21T12:02:35.731Z,20.74
2023-04-21T12:05:07.003Z,20.74
2023-04-21T12:07:37.406Z,20.76
2023-04-21T12:10:11.715Z,20.78
2023-04-21T12:12:41.023Z,20.79
2023-04-21T12:15:11.104Z,20.81
2023-04-21T12:17:41.396Z,20.80
2023-04-21T12:20:10.765Z,20.83
2023-04-21T12:22:39.259Z,20.85
2023-04-21T12:25:08.892Z,20.85
2023-04-21T12:27:37.350Z,20.86
2023-04-21T12:30:07.095Z,20.87
2023-04-21T12:32:35.582Z,20.87
2023-04-21T12:35:05.815Z,20.88
2023-04-21T12:37:34.270Z,20.89
2023-04-21T12:40:03.113Z,20.90
2023-04-21T12:42:31.912Z,20.90
2023-04-21T12:45:00.501Z,20.91
2023-04-21T12:47:29.079Z,20.91
2023-04-21T12:49:58.181Z,20.92
2023-04-21T12:52:28.018Z,20.92
2023-04-21T12:54:56.418Z,20.92
2023-04-21T12:57:24.970Z,20.95
2023-04-21T12:59:53.552Z,20.95
2023-04-21T13:02:22.182Z,20.94
2023-04-21T13:04:50.807Z,20.95
2023-04-21T13:07:21.296Z,20.96
2023-04-21T13:09:51.901Z,20.96
2023-04-21T13:12:20.360Z,20.96
2023-04-21T13:14:48.851Z,20.97
2023-04-21T13:17:17.626Z,20.98
2023-04-21T13:19:46.240Z,20.96
2023-04-21T13:22:14.897Z,20.98
2023-04-21T13:24:43.580Z,20.97
2023-04-21T13:27:13.407Z,20.97
2023-04-21T13:29:41.951Z,20.98
2023-04-21T13:32:10.590Z,20.97
2023-04-21T13:34:39.005Z,20.97
2023-04-21T13:37:10.656Z,20.94
2023-04-21T13:39:39.941Z,20.91
2023-04-21T13:42:08.441Z,20.89
2023-04-21T13:44:38.232Z,20.86
2023-04-21T13:47:08.988Z,20.84
2023-04-21T13:49:37.687Z,20.82
2023-04-21T13:52:06.169Z,20.81
2023-04-21T13:54:34.799Z,20.79
2023-04-21T13:57:03.579Z,20.78
2023-04-21T13:59:32.293Z,20.78
2023-04-21T14:02:02.359Z,20.76
2023-04-21T14:04:31.120Z,20.76
2023-04-21T14:06:59.828Z,20.74
2023-04-21T14:09:28.820Z,20.74
2023-04-21T14:11:57.227Z,20.72
2023-04-21T14:14:37.935Z,20.72
2023-04-21T14:17:08.601Z,20.70
2023-04-21T14:19:37.404Z,20.70
2023-04-21T14:22:05.875Z,20.69
2023-04-21T14:24:34.616Z,20.69
2023-04-21T14:27:03.073Z,20.69
2023-04-21T14:29:31.751Z,20.67
2023-04-21T14:32:00.683Z,20.66
2023-04-21T14:34:30.490Z,20.66
2023-04-21T14:36:59.659Z,20.64
2023-04-21T14:39:28.323Z,20.64
2023-04-21T14:41:56.889Z,20.62
2023-04-21T14:44:25.470Z,20.60
2023-04-21T14:47:06.116Z,20.59
2023-04-21T14:49:40.093Z,20.58
2023-04-21T14:52:09.251Z,20.56
2023-04-21T14:54:37.763Z,20.54
2023-04-21T14:57:19.899Z,20.53
2023-04-21T14:59:51.318Z,20.52
2023-04-21T15:02:20.532Z,20.51
2023-04-21T15:04:50.800Z,20.49
2023-04-21T15:07:24.214Z,20.48
2023-04-21T15:09:53.533Z,20.47
2023-04-21T15:12:22.395Z,20.46
2023-04-21T15:14:51.354Z,20.44
2023-04-21T15:17:19.859Z,20.46
2023-04-21T15:19:48.313Z,20.50
2023-04-21T15:22:18.281Z,20.53
2023-04-21T15:24:46.987Z,20.56
2023-04-21T15:27:15.446Z,20.58
2023-04-21T15:29:44.484Z,20.59
2023-04-21T15:32:14.046Z,20.58
2023-04-21T15:34:42.416Z,20.56
2023-04-21T15:37:10.828Z,20.50
2023-04-21T15:39:41.415Z,20.51
2023-04-21T15:42:10.455Z,20.54
2023-04-21T15:44:39.625Z,20.56
2023-04-21T15:47:08.104Z,20.57
2023-04-21T15:49:36.656Z,20.56
2023-04-21T15:52:06.640Z,20.58
2023-04-21T15:54:35.518Z,20.57
2023-04-21T15:57:05.704Z,20.60
2023-04-21T15:59:34.416Z,20.60
2023-04-21T16:02:03.164Z,20.62
2023-04-21T16:04:31.920Z,20.62
2023-04-21T16:07:00.467Z,20.62
2023-04-21T16:09:29.001Z,20.64
2023-04-21T16:11:57.813Z,20.64
2023-04-21T16:14:29.050Z,20.64
2023-04-21T16:17:02.435Z,20.64
2023-04-21T16:19:30.993Z,20.60
2023-04-21T16:21:59.734Z,20.61
2023-04-21T16:24:28.211Z,20.60
2023-04-21T16:26:57.645Z,20.62
2023-04-21T16:29:27.501Z,20.63
2023-04-21T16:31:56.003Z,20.63
2023-04-21T16:34:24.572Z,20.63
2023-04-21T16:36:53.074Z,20.66
2023-04-21T16:39:21.527Z,20.65
2023-04-21T16:41:50.611Z,20.66
2023-04-21T16:44:19.124Z,20.66
2023-04-21T16:46:48.927Z,20.66
2023-04-21T16:49:17.724Z,20.66
2023-04-21T16:51:46.316Z,20.67
2023-04-21T16:54:14.998Z,20.66
2023-04-21T16:56:43.562Z,20.66
2023-04-21T16:59:12.003Z,20.67
2023-04-21T17:01:40.566Z,20.67
2023-04-21T17:04:13.902Z,20.66
2023-04-21T17:06:43.079Z,20.67
2023-04-21T17:09:11.644Z,20.66
2023-04-21T17:11:40.551Z,20.66
2023-04-21T17:14:09.014Z,20.67
2023-04-21T17:16:37.734Z,20.64
2023-04-21T17:19:06.508Z,20.66
2023-04-21T17:21:36.342Z,20.66
2023-04-21T17:24:05.099Z,20.65
2023-04-21T17:26:33.643Z,20.66
2023-04-21T17:29:02.266Z,20.66
2023-04-21T17:31:32.866Z,20.61
2023-04-21T17:34:01.392Z,20.62
2023-04-21T17:36:30.527Z,20.61
2023-04-21T17:39:00.513Z,20.60
2023-04-21T17:41:29.023Z,20.62
2023-04-21T17:43:57.477Z,20.63
2023-04-21T17:46:26.414Z,20.64
2023-04-21T17:48:55.084Z,20.65
2023-04-21T17:51:24.605Z,20.66
2023-04-21T17:53:53.141Z,20.66
2023-04-21T17:56:23.700Z,20.66
2023-04-21T17:58:52.305Z,20.67
2023-04-21T18:01:20.965Z,20.68
2023-04-21T18:03:49.549Z,20.69
2023-04-21T18:06:18.557Z,20.70
2023-04-21T18:08:47.015Z,20.70
2023-04-21T18:11:15.467Z,20.70
2023-04-21T18:13:45.370Z,20.71
2023-04-21T18:16:13.869Z,20.70
2023-04-21T18:18:42.395Z,20.70
2023-04-21T18:21:11.486Z,20.70
2023-04-21T18:23:40.152Z,20.71
2023-04-21T18:26:08.765Z,20.70
2023-04-21T18:28:37.294Z,20.70
2023-04-21T18:31:07.313Z,20.72
2023-04-21T18:33:35.887Z,20.72
2023-04-21T18:36:04.767Z,20.71
2023-04-21T18:38:33.259Z,20.70
2023-04-21T18:41:01.775Z,20.70
2023-04-21T18:43:30.301Z,20.70
2023-04-21T18:45:58.805Z,20.71
2023-04-21T18:48:28.605Z,20.70
2023-04-21T18:50:57.273Z,20.70
2023-04-21T18:53:25.960Z,20.70
2023-04-21T18:55:54.493Z,20.70
2023-04-21T18:58:22.960Z,20.69
2023-04-21T19:00:51.508Z,20.71
2023-04-21T19:03:20.429Z,20.71
2023-04-21T19:05:50.461Z,20.71
2023-04-21T19:08:27.000Z,20.70
2023-04-21T19:11:07.072Z,20.70
2023-04-21T19:13:35.615Z,20.70
2023-04-21T19:16:04.892Z,20.71
2023-04-21T19:18:33.453Z,20.74
2023-04-21T19:21:04.492Z,20.78
2023-04-21T19:23:32.964Z,20.86
2023-04-21T19:26:04.636Z,20.92
2023-04-21T19:28:33.403Z,20.95
2023-04-21T19:31:01.871Z,21.00
2023-04-21T19:33:30.673Z,21.04
2023-04-21T19:35:59.609Z,21.06
2023-04-21T19:38:29.630Z,21.10
2023-04-21T19:40:58.285Z,21.11
2023-04-21T19:43:26.834Z,21.11
2023-04-21T19:45:55.656Z,21.12
2023-04-21T19:48:24.178Z,21.12
2023-04-21T19:50:52.646Z,21.14
2023-04-21T19:53:21.356Z,21.13
2023-04-21T19:55:52.566Z,21.15
2023-04-21T19:58:32.611Z,21.15
2023-04-21T20:01:07.810Z,21.15
2023-04-21T20:03:36.672Z,21.15
2023-04-21T20:06:06.313Z,21.16
2023-04-21T20:08:35.550Z,21.15
2023-04-21T20:11:05.358Z,21.16
2023-04-21T20:13:33.851Z,21.16
2023-04-21T20:16:03.464Z,21.16
2023-04-21T20:18:31.922Z,21.14
2023-04-21T20:21:00.996Z,21.11
2023-04-21T20:23:29.763Z,21.10
2023-04-21T20:25:58.293Z,21.08
2023-04-21T20:28:28.161Z,21.09
2023-04-21T20:30:57.229Z,21.08
2023-04-21T20:33:25.853Z,21.07
2023-04-21T20:35:55.175Z,21.08
2023-04-21T20:38:24.673Z,21.07
2023-04-21T20:40:53.801Z,21.08
2023-04-21T20:43:22.401Z,21.08
2023-04-21T20:45:52.109Z,21.10
2023-04-21T20:48:20.574Z,21.09
2023-04-21T20:50:51.252Z,21.08
2023-04-21T20:53:20.015Z,21.09
2023-04-21T20:55:48.446Z,21.08
2023-04-21T20:58:16.836Z,21.08
2023-04-21T21:00:45.416Z,21.08
2023-04-21T21:03:15.761Z,21.07
2023-04-21T21:05:44.279Z,21.07
2023-04-21T21:08:12.734Z,21.06
2023-04-21T21:10:41.107Z,21.06
2023-04-21T21:13:09.534Z,21.06
2023-04-21T21:15:37.972Z,21.06
2023-04-21T21:18:06.497Z,21.05
2023-04-21T21:20:36.346Z,21.06
2023-04-21T21:23:04.770Z,21.05
2023-04-21T21:25:33.197Z,21.04
2023-04-21T21:28:01.625Z,21.06
2023-04-21T21:30:29.951Z,21.06
2023-04-21T21:32:58.416Z,21.07
2023-04-21T21:35:26.938Z,21.06
2023-04-21T21:37:56.814Z,21.06
2023-04-21T21:40:25.345Z,21.07
2023-04-21T21:42:53.774Z,21.08
2023-04-21T21:45:23.594Z,21.06
2023-04-21T21:47:52.077Z,21.06
2023-04-21T21:50:20.550Z,21.06
2023-04-21T21:52:49.030Z,21.06
2023-04-21T21:55:18.928Z,21.07
2023-04-21T21:57:47.472Z,21.07
2023-04-21T22:00:16.460Z,21.07
2023-04-21T22:02:45.183Z,21.07
2023-04-21T22:05:13.766Z,21.07
2023-04-21T22:07:43.139Z,21.06
2023-04-21T22:10:12.315Z,21.06
2023-04-21T22:12:42.351Z,21.06
2023-04-21T22:15:11.574Z,21.06
2023-04-21T22:17:40.156Z,21.05
2023-04-21T22:20:09.496Z,21.04
2023-04-21T22:22:37.965Z,21.05
2023-04-21T22:25:07.083Z,21.06
2023-04-21T22:27:35.482Z,21.05
2023-04-21T22:30:06.301Z,21.06
2023-04-21T22:32:35.177Z,21.06
2023-04-21T22:35:04.836Z,21.04
2023-04-21T22:37:33.231Z,21.03
2023-04-21T22:40:01.660Z,21.03
2023-04-21T22:42:30.144Z,21.04
2023-04-21T22:44:59.241Z,21.04
2023-04-21T22:47:29.253Z,21.05
2023-04-21T22:49:57.780Z,21.02
2023-04-21T22:52:26.961Z,21.04
2023-04-21T22:54:55.605Z,21.02
2023-04-21T22:57:25.358Z,21.03
2023-04-21T22:59:53.973Z,21.03
2023-04-21T23:02:22.662Z,21.02
2023-04-21T23:04:52.568Z,21.02
2023-04-21T23:07:21.282Z,21.02
2023-04-21T23:09:50.029Z,21.02
2023-04-21T23:12:18.531Z,21.02
2023-04-21T23:14:48.253Z,21.04
2023-04-21T23:17:16.652Z,21.04
2023-04-21T23:19:45.122Z,21.02
2023-04-21T23:22:15.020Z,20.99
2023-04-21T23:24:43.507Z,20.94
2023-04-21T23:27:11.981Z,20.93
2023-04-21T23:29:40.767Z,20.90
2023-04-21T23:32:09.584Z,20.88
2023-04-21T23:34:38.175Z,20.87
2023-04-21T23:37:06.666Z,20.87
2023-04-21T23:39:36.605Z,20.84
2023-04-21T23:42:05.390Z,20.82
2023-04-21T23:44:33.845Z,20.81
2023-04-21T23:47:02.295Z,20.80
2023-04-21T23:49:30.740Z,20.79
2023-04-21T23:51:59.658Z,20.79
2023-04-21T23:54:28.102Z,20.77
2023-04-21T23:56:58.333Z,20.76
2023-04-21T23:59:26.748Z,20.75
